Terminal Aerodrome Forecast
Issued by NWS Jacksonville, FL

Home | Current Version | Previous Version | Text Only | Print | Product List | Glossary On
Versions: 1 2 3 4 5 6 7 8 9 10 11 12 13 14 15 16 17
312
FTUS42 KJAX 312112 AAD
TAFJAX
TAF AMD
KJAX 312112Z 3121/0118 12010KT P6SM VCTS SCT050CB BKN120
      TEMPO 3121/3122 VRB15G25KT 4SM -TSRA BKN035CB
     FM010200 VRB03KT P6SM FEW050 SCT100
     FM011400 28006KT P6SM SCT030=

USA.gov is the U.S. government's official web portal to all federal, state and local government web resources and services.